createdAt,value
2023-01-21T00:00:28.336Z,10.07
2023-01-21T00:02:56.435Z,11.23
2023-01-21T00:05:25.884Z,12.00
2023-01-21T00:07:53.937Z,13.23
2023-01-21T00:10:27.804Z,11.30
2023-01-21T00:12:55.871Z,11.93
2023-01-21T00:15:23.963Z,12.70
2023-01-21T00:17:53.796Z,10.83
2023-01-21T00:20:21.891Z,13.90
2023-01-21T00:22:53.895Z,13.57
2023-01-21T00:25:22.023Z,11.40
2023-01-21T00:27:50.143Z,12.10
2023-01-21T00:30:18.830Z,11.00
2023-01-21T00:32:47.618Z,13.30
2023-01-21T00:35:15.703Z,11.00
2023-01-21T00:37:43.737Z,10.70
2023-01-21T00:40:14.804Z,10.23
2023-01-21T00:42:42.954Z,12.53
2023-01-21T00:45:11.648Z,13.90
2023-01-21T00:47:39.714Z,12.60
2023-01-21T00:50:09.064Z,12.50
2023-01-21T00:52:37.149Z,11.67
2023-01-21T00:55:05.791Z,14.20
2023-01-21T00:57:35.577Z,11.60
2023-01-21T01:00:04.700Z,13.40
2023-01-21T01:02:34.001Z,10.80
2023-01-21T01:05:02.149Z,12.27
2023-01-21T01:07:30.232Z,11.90
2023-01-21T01:09:58.525Z,15.30
2023-01-21T01:12:26.582Z,13.13
2023-01-21T01:14:56.102Z,11.40
2023-01-21T01:17:24.102Z,13.10
2023-01-21T01:19:58.220Z,14.47
2023-01-21T01:22:26.372Z,12.43
2023-01-21T01:24:54.441Z,13.20
2023-01-21T01:27:22.504Z,11.90
2023-01-21T01:29:50.563Z,13.77
2023-01-21T01:32:19.979Z,12.47
2023-01-21T01:34:48.036Z,12.73
2023-01-21T01:37:16.082Z,14.17
2023-01-21T01:39:44.180Z,14.10
2023-01-21T01:42:15.178Z,12.67
2023-01-21T01:44:57.308Z,15.27
2023-01-21T01:47:29.079Z,12.70
2023-01-21T01:49:57.145Z,12.83
2023-01-21T01:52:25.216Z,12.93
2023-01-21T01:54:54.594Z,11.47
2023-01-21T01:57:23.365Z,13.90
2023-01-21T01:59:51.429Z,13.73
2023-01-21T02:02:20.123Z,13.30
2023-01-21T02:04:53.892Z,13.17
2023-01-21T02:07:22.444Z,14.00
2023-01-21T02:09:50.520Z,11.80
2023-01-21T02:12:19.118Z,11.30
2023-01-21T02:14:51.785Z,11.63
2023-01-21T02:17:28.225Z,11.13
2023-01-21T02:20:15.024Z,12.30
2023-01-21T02:22:44.161Z,12.07
2023-01-21T02:25:41.544Z,10.53
2023-01-21T02:28:29.379Z,13.60
2023-01-21T02:31:07.671Z,11.00
2023-01-21T02:33:51.105Z,11.80
2023-01-21T02:36:32.719Z,12.43
2023-01-21T02:39:05.057Z,11.00
2023-01-21T02:41:38.257Z,13.40
2023-01-21T02:44:10.384Z,13.23
2023-01-21T02:46:42.885Z,12.20
2023-01-21T02:49:14.343Z,11.10
2023-01-21T02:51:47.360Z,12.53
2023-01-21T02:54:16.860Z,13.00
2023-01-21T02:56:45.146Z,15.30
2023-01-21T02:59:13.191Z,13.40
2023-01-21T03:01:47.442Z,10.90
2023-01-21T03:04:35.079Z,14.40
2023-01-21T03:07:05.872Z,14.27
2023-01-21T03:09:34.190Z,11.40
2023-01-21T03:12:17.008Z,12.63
2023-01-21T03:15:05.723Z,14.07
2023-01-21T03:17:37.430Z,18.83
2023-01-21T03:20:09.296Z,12.80
2023-01-21T03:22:37.349Z,12.03
2023-01-21T03:25:06.041Z,11.80
2023-01-21T03:27:34.132Z,12.20
2023-01-21T03:30:06.347Z,12.47
2023-01-21T03:32:34.582Z,13.03
2023-01-21T03:35:02.654Z,13.17
2023-01-21T03:37:37.330Z,12.20
2023-01-21T03:40:12.358Z,13.37
2023-01-21T03:42:40.428Z,12.27
2023-01-21T03:45:09.771Z,11.60
2023-01-21T03:47:38.776Z,13.90
2023-01-21T03:50:11.745Z,12.70
2023-01-21T03:52:41.826Z,11.47
2023-01-21T03:55:10.233Z,11.93
2023-01-21T03:57:38.307Z,11.30
2023-01-21T04:00:07.449Z,12.67
2023-01-21T04:02:35.560Z,12.30
2023-01-21T04:05:03.609Z,12.10
2023-01-21T04:07:31.650Z,10.93
2023-01-21T04:10:01.108Z,12.37
2023-01-21T04:12:29.173Z,14.80
2023-01-21T04:14:58.171Z,14.90
2023-01-21T04:17:28.307Z,14.13
2023-01-21T04:19:56.368Z,12.53
2023-01-21T04:22:24.421Z,11.93
2023-01-21T04:24:52.519Z,12.73
2023-01-21T04:27:22.013Z,13.57
2023-01-21T04:29:50.057Z,14.27
2023-01-21T04:32:18.116Z,13.10
2023-01-21T04:34:46.164Z,13.87
2023-01-21T04:37:14.236Z,14.63
2023-01-21T04:39:42.302Z,12.77
2023-01-21T04:42:10.339Z,13.13
2023-01-21T04:44:39.727Z,14.27
2023-01-21T04:47:07.765Z,12.20
2023-01-21T04:49:35.866Z,13.83
2023-01-21T04:52:03.979Z,14.60
2023-01-21T04:54:32.016Z,12.77
2023-01-21T04:57:00.282Z,11.77
2023-01-21T04:59:28.306Z,13.10
2023-01-21T05:01:57.736Z,13.30
2023-01-21T05:04:25.840Z,11.93
2023-01-21T05:06:53.936Z,14.33
2023-01-21T05:09:21.985Z,13.13
2023-01-21T05:11:50.044Z,11.40
2023-01-21T05:14:18.073Z,14.37
2023-01-21T05:16:46.218Z,12.60
2023-01-21T05:19:15.603Z,14.00
2023-01-21T05:21:43.667Z,13.40
2023-01-21T05:24:11.779Z,12.10
2023-01-21T05:26:39.830Z,13.80
2023-01-21T05:29:07.889Z,13.20
2023-01-21T05:31:36.063Z,11.90
2023-01-21T05:34:04.146Z,15.07
2023-01-21T05:36:34.713Z,11.20
2023-01-21T05:39:02.812Z,11.60
2023-01-21T05:41:30.960Z,16.40
2023-01-21T05:43:58.993Z,14.70
2023-01-21T05:46:27.152Z,15.80
2023-01-21T05:48:55.265Z,14.33
2023-01-21T05:51:27.940Z,11.10
2023-01-21T05:53:57.342Z,16.20
2023-01-21T05:56:25.394Z,12.80
2023-01-21T05:58:53.435Z,14.70
2023-01-21T06:01:21.479Z,12.80
2023-01-21T06:03:49.587Z,14.23
2023-01-21T06:06:17.716Z,13.03
2023-01-21T06:08:45.779Z,11.27
2023-01-21T06:11:15.200Z,14.20
2023-01-21T06:13:43.262Z,12.37
2023-01-21T06:16:11.373Z,13.73
2023-01-21T06:18:39.690Z,13.60
2023-01-21T06:21:07.730Z,13.63
2023-01-21T06:23:35.761Z,12.67
2023-01-21T06:26:04.103Z,13.53
2023-01-21T06:28:33.562Z,13.23
2023-01-21T06:31:01.745Z,15.37
2023-01-21T06:33:29.941Z,11.97
2023-01-21T06:35:57.970Z,12.40
2023-01-21T06:38:26.092Z,13.30
2023-01-21T06:40:54.169Z,12.73
2023-01-21T06:43:22.231Z,14.50
2023-01-21T06:45:51.658Z,12.07
2023-01-21T06:48:19.905Z,14.97
2023-01-21T06:50:47.949Z,16.17
2023-01-21T06:53:15.969Z,14.67
2023-01-21T06:55:44.016Z,14.17
2023-01-21T06:58:12.093Z,13.17
2023-01-21T07:00:40.113Z,16.87
2023-01-21T07:03:09.574Z,12.90
2023-01-21T07:05:37.598Z,14.83
2023-01-21T07:08:05.835Z,15.00
2023-01-21T07:10:33.859Z,13.90
2023-01-21T07:13:04.062Z,13.17
2023-01-21T07:15:32.154Z,13.23
2023-01-21T07:18:00.310Z,14.80
2023-01-21T07:20:29.725Z,13.70
2023-01-21T07:22:57.794Z,16.30
2023-01-21T07:25:25.851Z,15.40
2023-01-21T07:27:53.900Z,15.00
2023-01-21T07:30:22.419Z,13.90
2023-01-21T07:32:52.020Z,13.13
2023-01-21T07:35:20.346Z,14.73
2023-01-21T07:37:49.843Z,17.13
2023-01-21T07:40:18.075Z,13.97
2023-01-21T07:42:51.344Z,13.43
2023-01-21T07:45:19.594Z,13.43
2023-01-21T07:47:47.777Z,14.57
2023-01-21T07:50:15.911Z,14.97
2023-01-21T07:52:44.002Z,14.00
2023-01-21T07:55:13.465Z,15.00
2023-01-21T07:57:41.556Z,16.23
2023-01-21T08:00:11.487Z,13.70
2023-01-21T08:02:39.644Z,16.27
2023-01-21T08:05:08.402Z,18.27
2023-01-21T08:07:36.484Z,15.13
2023-01-21T08:10:11.062Z,15.80
2023-01-21T08:12:41.546Z,15.37
2023-01-21T08:15:10.261Z,13.57
2023-01-21T08:17:39.116Z,18.00
2023-01-21T08:20:09.700Z,16.47
2023-01-21T08:22:37.942Z,14.40
2023-01-21T08:25:06.687Z,16.97
2023-01-21T08:27:34.740Z,16.53
2023-01-21T08:30:04.336Z,15.67
2023-01-21T08:32:32.680Z,14.80
2023-01-21T08:35:00.733Z,15.60
2023-01-21T08:37:28.790Z,16.27
2023-01-21T08:39:56.834Z,16.33
2023-01-21T08:42:24.866Z,15.17
2023-01-21T08:44:54.167Z,14.27
2023-01-21T08:47:23.620Z,15.90
2023-01-21T08:49:51.775Z,16.77
2023-01-21T08:52:21.563Z,14.87
2023-01-21T08:54:50.764Z,14.57
2023-01-21T08:57:18.957Z,18.07
2023-01-21T08:59:46.995Z,15.97
2023-01-21T09:02:15.085Z,14.73
2023-01-21T09:04:44.559Z,15.60
2023-01-21T09:07:12.560Z,15.83
2023-01-21T09:09:40.611Z,11.63
2023-01-21T09:12:08.790Z,13.60
2023-01-21T09:14:36.851Z,14.53
2023-01-21T09:17:04.892Z,15.63
2023-01-21T09:19:32.976Z,16.10
2023-01-21T09:22:02.420Z,14.30
2023-01-21T09:24:30.576Z,15.83
2023-01-21T09:26:58.603Z,15.53
2023-01-21T09:29:26.661Z,15.03
2023-01-21T09:31:54.719Z,15.37
2023-01-21T09:34:22.757Z,16.50
2023-01-21T09:36:50.807Z,18.83
2023-01-21T09:39:20.228Z,14.40
2023-01-21T09:41:50.599Z,14.00
2023-01-21T09:44:23.037Z,17.00
2023-01-21T09:46:54.179Z,13.87
2023-01-21T09:49:23.749Z,16.07
2023-01-21T09:51:54.162Z,16.90
2023-01-21T09:54:30.495Z,14.30
2023-01-21T09:57:17.404Z,15.40
2023-01-21T09:59:52.547Z,15.93
2023-01-21T10:02:25.513Z,16.37
2023-01-21T10:04:56.811Z,14.93
2023-01-21T10:07:27.802Z,14.93
2023-01-21T10:10:01.804Z,15.00
2023-01-21T10:12:38.700Z,19.43
2023-01-21T10:15:26.668Z,14.13
2023-01-21T10:17:56.712Z,15.70
2023-01-21T10:20:26.584Z,15.97
2023-01-21T10:22:56.074Z,20.10
2023-01-21T10:25:27.357Z,15.27
2023-01-21T10:27:55.756Z,14.73
2023-01-21T10:30:25.500Z,14.87
2023-01-21T10:32:54.036Z,15.17
2023-01-21T10:35:30.057Z,16.00
2023-01-21T10:38:00.273Z,19.10
2023-01-21T10:40:43.751Z,15.50
2023-01-21T10:43:15.379Z,17.20
2023-01-21T10:45:45.659Z,16.40
2023-01-21T10:48:16.621Z,16.60
2023-01-21T10:50:49.317Z,16.73
2023-01-21T10:53:24.379Z,16.63
2023-01-21T10:56:13.981Z,17.33
2023-01-21T10:58:43.862Z,18.77
2023-01-21T11:01:16.537Z,16.53
2023-01-21T11:03:45.558Z,21.23
2023-01-21T11:06:17.845Z,15.70
2023-01-21T11:08:47.922Z,16.60
2023-01-21T11:11:19.681Z,17.40
2023-01-21T11:13:47.735Z,16.57
2023-01-21T11:16:15.753Z,18.33
2023-01-21T11:18:43.781Z,19.13
2023-01-21T11:21:17.681Z,18.97
2023-01-21T11:23:53.468Z,16.80
2023-01-21T11:26:25.674Z,17.10
2023-01-21T11:29:07.773Z,17.33
2023-01-21T11:31:36.186Z,16.73
2023-01-21T11:34:07.691Z,17.20
2023-01-21T11:36:35.793Z,17.20
2023-01-21T11:39:04.869Z,17.50
2023-01-21T11:41:34.287Z,15.73
2023-01-21T11:44:17.211Z,16.23
2023-01-21T11:46:45.283Z,16.43
2023-01-21T11:49:33.021Z,15.30
2023-01-21T11:52:18.188Z,16.40
2023-01-21T11:54:46.391Z,18.40
2023-01-21T11:57:27.534Z,14.60
2023-01-21T11:59:57.179Z,14.43
2023-01-21T12:02:26.344Z,16.00
2023-01-21T12:04:56.269Z,15.50
2023-01-21T12:07:29.731Z,16.43
2023-01-21T12:10:04.656Z,14.83
2023-01-21T12:12:39.319Z,16.10
2023-01-21T12:15:18.068Z,15.53
2023-01-21T12:17:51.685Z,18.40
2023-01-21T12:20:24.300Z,17.40
2023-01-21T12:22:57.795Z,15.73
2023-01-21T12:25:30.357Z,18.03
2023-01-21T12:28:14.532Z,16.17
2023-01-21T12:30:46.064Z,21.03
2023-01-21T12:33:15.506Z,14.00
2023-01-21T12:35:44.887Z,18.03
2023-01-21T12:38:14.370Z,18.63
2023-01-21T12:40:44.896Z,17.10
2023-01-21T12:43:17.350Z,17.83
2023-01-21T12:45:47.699Z,16.10
2023-01-21T12:48:16.951Z,16.50
2023-01-21T12:50:46.742Z,15.90
2023-01-21T12:53:18.754Z,14.00
2023-01-21T12:56:17.600Z,14.07
2023-01-21T12:58:50.260Z,14.73
2023-01-21T13:01:35.008Z,16.47
2023-01-21T13:04:06.060Z,17.70
2023-01-21T13:06:52.439Z,16.37
2023-01-21T13:09:24.478Z,14.17
2023-01-21T13:11:59.293Z,13.63
2023-01-21T13:14:31.266Z,16.23
2023-01-21T13:17:00.805Z,15.93
2023-01-21T13:19:34.313Z,16.13
2023-01-21T13:22:05.205Z,15.90
2023-01-21T13:24:42.800Z,14.57
2023-01-21T13:27:18.241Z,15.53
2023-01-21T13:29:50.560Z,14.53
2023-01-21T13:32:30.241Z,14.40
2023-01-21T13:35:06.687Z,14.90
2023-01-21T13:37:37.871Z,15.07
2023-01-21T13:40:29.752Z,16.13
2023-01-21T13:43:03.206Z,14.30
2023-01-21T13:45:36.744Z,14.37
2023-01-21T13:48:24.375Z,15.10
2023-01-21T13:51:09.507Z,17.10
2023-01-21T13:53:43.926Z,16.00
2023-01-21T13:56:23.646Z,15.70
2023-01-21T13:58:52.806Z,13.67
2023-01-21T14:01:24.120Z,11.50
2023-01-21T14:03:55.094Z,16.13
2023-01-21T14:06:25.179Z,13.87
2023-01-21T14:08:54.914Z,15.67
2023-01-21T14:11:24.722Z,16.60
2023-01-21T14:14:18.289Z,14.87
2023-01-21T14:17:24.185Z,13.23
2023-01-21T14:20:17.384Z,14.20
2023-01-21T14:23:11.963Z,14.60
2023-01-21T14:25:48.871Z,12.30
2023-01-21T14:28:19.690Z,14.50
2023-01-21T14:30:49.219Z,13.60
2023-01-21T14:33:19.892Z,12.93
2023-01-21T14:35:49.301Z,11.73
2023-01-21T14:38:22.589Z,13.20
2023-01-21T14:40:51.280Z,13.20
2023-01-21T14:43:47.724Z,11.43
2023-01-21T14:46:27.200Z,12.50
2023-01-21T14:49:01.383Z,11.07
2023-01-21T14:51:30.896Z,13.50
2023-01-21T14:54:00.669Z,13.57
2023-01-21T14:56:31.716Z,12.30
2023-01-21T14:59:01.014Z,14.40
2023-01-21T15:01:38.598Z,13.17
2023-01-21T15:04:23.606Z,11.77
2023-01-21T15:06:51.812Z,12.13
2023-01-21T15:09:29.807Z,11.67
2023-01-21T15:12:00.439Z,12.17
2023-01-21T15:14:29.406Z,10.07
2023-01-21T15:16:57.525Z,13.20
2023-01-21T15:19:31.505Z,14.20
2023-01-21T15:22:16.040Z,13.23
2023-01-21T15:24:59.908Z,9.97
2023-01-21T15:27:28.001Z,10.73
2023-01-21T15:30:28.519Z,12.97
2023-01-21T15:32:56.555Z,10.17
2023-01-21T15:35:30.183Z,11.67
2023-01-21T15:38:01.579Z,9.87
2023-01-21T15:40:30.811Z,12.20
2023-01-21T15:43:05.793Z,10.90
2023-01-21T15:45:37.301Z,12.50
2023-01-21T15:48:40.241Z,10.30
2023-01-21T15:51:20.499Z,11.30
2023-01-21T15:54:14.331Z,13.77
2023-01-21T15:57:05.359Z,11.33
2023-01-21T15:59:42.074Z,9.60
2023-01-21T16:02:16.304Z,10.23
2023-01-21T16:04:49.344Z,11.03
2023-01-21T16:07:27.952Z,11.00
2023-01-21T16:10:01.817Z,10.07
2023-01-21T16:12:34.771Z,10.27
2023-01-21T16:15:07.901Z,8.07
2023-01-21T16:17:43.375Z,10.70
2023-01-21T16:20:11.840Z,9.20
2023-01-21T16:22:42.112Z,8.47
2023-01-21T16:25:11.828Z,10.40
2023-01-21T16:27:39.844Z,9.10
2023-01-21T16:30:10.012Z,10.20
2023-01-21T16:32:38.115Z,8.70
2023-01-21T16:35:06.690Z,8.50
2023-01-21T16:37:34.758Z,9.60
2023-01-21T16:40:21.454Z,7.80
2023-01-21T16:42:49.529Z,8.17
2023-01-21T16:45:18.775Z,7.60
2023-01-21T16:47:47.059Z,9.73
2023-01-21T16:50:19.690Z,8.27
2023-01-21T16:52:47.788Z,8.83
2023-01-21T16:55:19.807Z,9.10
2023-01-21T16:57:51.773Z,9.30
2023-01-21T17:00:23.678Z,8.67
2023-01-21T17:02:51.733Z,7.40
2023-01-21T17:05:19.926Z,8.00
2023-01-21T17:07:49.324Z,8.47
2023-01-21T17:10:20.954Z,8.70
2023-01-21T17:12:51.359Z,9.20
2023-01-21T17:15:20.447Z,7.83
2023-01-21T17:17:48.591Z,7.70
2023-01-21T17:20:33.300Z,7.13
2023-01-21T17:23:03.247Z,9.43
2023-01-21T17:25:31.293Z,8.20
2023-01-21T17:28:00.720Z,7.30
2023-01-21T17:30:30.765Z,9.00
2023-01-21T17:32:59.651Z,7.87
2023-01-21T17:35:28.369Z,6.70
2023-01-21T17:37:57.259Z,7.83
2023-01-21T17:40:26.995Z,7.17
2023-01-21T17:42:55.212Z,10.50
2023-01-21T17:45:29.326Z,6.83
2023-01-21T17:48:14.597Z,7.50
2023-01-21T17:50:46.265Z,8.80
2023-01-21T17:53:20.973Z,8.60
2023-01-21T17:55:56.957Z,7.80
2023-01-21T17:58:48.322Z,8.40
2023-01-21T18:01:17.788Z,8.97
2023-01-21T18:03:46.771Z,7.80
2023-01-21T18:06:18.485Z,7.30
2023-01-21T18:08:46.570Z,8.63
2023-01-21T18:11:16.098Z,8.80
2023-01-21T18:13:44.203Z,9.33
2023-01-21T18:16:12.295Z,9.27
2023-01-21T18:18:42.039Z,8.30
2023-01-21T18:21:16.136Z,8.13
2023-01-21T18:23:44.250Z,9.70
2023-01-21T18:26:16.389Z,10.73
2023-01-21T18:28:44.455Z,9.30
2023-01-21T18:31:12.954Z,8.47
2023-01-21T18:33:42.442Z,10.10
2023-01-21T18:36:12.163Z,6.77
2023-01-21T18:38:40.190Z,10.33
2023-01-21T18:41:09.044Z,9.20
2023-01-21T18:43:37.062Z,9.50
2023-01-21T18:46:06.523Z,7.50
2023-01-21T18:48:34.774Z,8.33
2023-01-21T18:51:04.720Z,7.80
2023-01-21T18:53:32.793Z,8.33
2023-01-21T18:56:00.810Z,9.00
2023-01-21T18:58:28.943Z,9.27
2023-01-21T19:00:58.670Z,9.10
2023-01-21T19:03:26.752Z,8.33
2023-01-21T19:05:54.824Z,11.23
2023-01-21T19:08:30.413Z,10.07
2023-01-21T19:10:58.429Z,9.57
2023-01-21T19:13:28.670Z,8.90
2023-01-21T19:15:57.750Z,7.50
2023-01-21T19:18:27.487Z,10.30
2023-01-21T19:20:58.635Z,9.70
2023-01-21T19:23:26.748Z,9.50
2023-01-21T19:25:56.558Z,10.73
2023-01-21T19:28:24.646Z,10.10
2023-01-21T19:30:55.499Z,9.80
2023-01-21T19:33:23.863Z,8.70
2023-01-21T19:35:53.303Z,9.17
2023-01-21T19:38:22.158Z,10.40
2023-01-21T19:40:50.736Z,8.40
2023-01-21T19:43:21.656Z,9.60
2023-01-21T19:45:49.827Z,10.73
2023-01-21T19:48:19.133Z,9.93
2023-01-21T19:50:47.242Z,11.73
2023-01-21T19:53:16.329Z,11.50
2023-01-21T19:55:44.955Z,10.47
2023-01-21T19:58:15.674Z,9.67
2023-01-21T20:00:45.116Z,9.53
2023-01-21T20:03:13.624Z,13.50
2023-01-21T20:05:41.655Z,10.80
2023-01-21T20:08:12.440Z,11.30
2023-01-21T20:10:40.510Z,11.67
2023-01-21T20:13:11.714Z,11.30
2023-01-21T20:15:40.187Z,10.43
2023-01-21T20:18:15.233Z,11.17
2023-01-21T20:20:43.282Z,9.30
2023-01-21T20:23:12.189Z,11.30
2023-01-21T20:25:40.289Z,11.77
2023-01-21T20:28:13.699Z,10.80
2023-01-21T20:30:41.777Z,10.73
2023-01-21T20:33:12.514Z,9.70
2023-01-21T20:35:40.649Z,9.53
2023-01-21T20:38:12.192Z,10.50
2023-01-21T20:40:40.262Z,11.27
2023-01-21T20:43:08.342Z,13.93
2023-01-21T20:45:42.796Z,11.33
2023-01-21T20:48:16.525Z,11.87
2023-01-21T20:50:44.578Z,12.23
2023-01-21T20:53:12.735Z,9.97
2023-01-21T20:55:40.809Z,11.30
2023-01-21T20:58:08.921Z,11.40
2023-01-21T21:00:37.044Z,13.23
2023-01-21T21:03:05.199Z,12.43
2023-01-21T21:05:34.639Z,12.63
2023-01-21T21:08:02.754Z,11.03
2023-01-21T21:10:34.598Z,10.70
2023-01-21T21:13:02.711Z,11.37
2023-01-21T21:15:30.878Z,11.20
2023-01-21T21:17:59.045Z,11.30
2023-01-21T21:20:28.721Z,12.10
2023-01-21T21:23:00.163Z,11.43
2023-01-21T21:25:28.916Z,10.87
2023-01-21T21:27:57.128Z,13.40
2023-01-21T21:30:46.305Z,13.00
2023-01-21T21:33:46.340Z,10.33
2023-01-21T21:36:46.289Z,11.00
2023-01-21T21:39:19.416Z,11.43
2023-01-21T21:42:16.134Z,12.13
2023-01-21T21:44:44.337Z,11.03
2023-01-21T21:47:51.948Z,10.63
2023-01-21T21:50:20.248Z,12.67
2023-01-21T21:52:48.316Z,11.33
2023-01-21T21:56:10.208Z,11.93
2023-01-21T21:58:39.648Z,13.60
2023-01-21T22:01:08.982Z,10.90
2023-01-21T22:04:28.303Z,12.60
2023-01-21T22:07:16.307Z,11.53
2023-01-21T22:09:44.336Z,11.17
2023-01-21T22:12:12.438Z,12.50
2023-01-21T22:15:18.118Z,11.83
2023-01-21T22:17:46.334Z,13.67
2023-01-21T22:20:22.765Z,12.30
2023-01-21T22:23:10.337Z,12.30
2023-01-21T22:25:58.364Z,13.27
2023-01-21T22:28:26.423Z,10.60
2023-01-21T22:30:55.959Z,12.30
2023-01-21T22:33:40.845Z,11.40
2023-01-21T22:36:11.781Z,9.37
2023-01-21T22:38:46.977Z,11.03
2023-01-21T22:41:18.453Z,10.67
2023-01-21T22:44:16.339Z,10.07
2023-01-21T22:47:11.770Z,13.77
2023-01-21T22:49:39.854Z,12.27
2023-01-21T22:52:16.785Z,10.83
2023-01-21T22:54:58.720Z,13.60
2023-01-21T22:57:34.819Z,11.70
2023-01-21T23:00:02.904Z,12.03
2023-01-21T23:02:42.280Z,12.87
2023-01-21T23:05:10.675Z,12.90
2023-01-21T23:07:40.832Z,12.60
2023-01-21T23:10:09.620Z,11.37
2023-01-21T23:12:37.674Z,10.30
2023-01-21T23:15:16.965Z,8.93
2023-01-21T23:17:46.386Z,11.40
2023-01-21T23:20:14.402Z,12.00
2023-01-21T23:22:42.934Z,11.90
2023-01-21T23:25:11.446Z,11.33
2023-01-21T23:27:39.497Z,12.33
2023-01-21T23:30:28.384Z,12.00
2023-01-21T23:33:17.736Z,11.83
2023-01-21T23:36:04.565Z,10.80
2023-01-21T23:38:46.811Z,10.43
2023-01-21T23:41:28.874Z,12.53
2023-01-21T23:44:16.417Z,10.60
2023-01-21T23:46:58.879Z,11.30
2023-01-21T23:49:47.783Z,10.13
2023-01-21T23:52:22.849Z,12.03
2023-01-21T23:54:50.943Z,13.50
2023-01-21T23:57:19.678Z,12.20
2023-01-21T23:59:52.855Z,11.27
